Terminal Aerodrome Forecast
Issued by NWS Billings, MT

Home | Current Version | Previous Version | Text Only | Print | Product List | Glossary On
Versions: 1 2 3 4 5 6 7 8 9 10 11 12 13 14
000
FTUS45 KBYZ 301738
TAFMLS
TAF
KMLS 301738Z 3018/3118 12014KT P6SM SCT200
     FM310300 16011KT P6SM SCT120 WS020/17045KT
     FM311500 17010KT P6SM SCT150=

USA.gov is the U.S. government's official web portal to all federal, state and local government web resources and services.